Time,TemperatureF,DewpointF,PressureIn,WindDirection,WindDirectionDegrees,WindSpeedMPH,WindSpeedGustMPH,Humidity,HourlyPrecipIn,Conditions,Clouds,dailyrainin,SoftwareType,DateUTC
2013-05-02 00:09:00,46.3,43.0,30.47,SE,145,0.0,0.0,88,0.00,,,0.00,weatherlink.com 1.10,2013-05-02 04:09:00,
2013-05-02 00:24:00,45.7,43.0,30.47,SE,146,0.0,0.0,89,0.00,,,0.00,weatherlink.com 1.10,2013-05-02 04:24:00,
2013-05-02 00:39:00,45.3,43.0,30.47,SE,145,0.0,0.0,90,0.00,,,0.00,weatherlink.com 1.10,2013-05-02 04:39:00,
2013-05-02 00:54:00,44.8,42.0,30.47,SE,145,0.0,0.0,90,0.00,,,0.00,weatherlink.com 1.10,2013-05-02 04:54:00,
2013-05-02 01:09:00,44.5,42.0,30.46,SE,145,0.0,0.0,91,0.00,,,0.00,weatherlink.com 1.10,2013-05-02 05:09:00,
2013-05-02 01:24:00,44.3,42.0,30.46,SE,145,0.0,0.0,92,0.00,,,0.00,weatherlink.com 1.10,2013-05-02 05:24:00,
2013-05-02 01:39:00,44.2,42.0,30.45,SE,145,0.0,0.0,92,0.00,,,0.00,weatherlink.com 1.10,2013-05-02 05:39:00,
2013-05-02 01:54:00,43.7,42.0,30.44,SE,146,0.0,0.0,92,0.00,,,0.00,weatherlink.com 1.10,2013-05-02 05:54:00,
2013-05-02 02:09:00,43.6,42.0,30.44,SE,145,0.0,0.0,92,0.00,,,0.00,weatherlink.com 1.10,2013-05-02 06:09:00,
2013-05-02 02:24:00,43.4,42.0,30.43,SE,145,0.0,0.0,93,0.00,,,0.00,weatherlink.com 1.10,2013-05-02 06:24:00,
2013-05-02 02:39:00,43.5,42.0,30.43,SE,145,0.0,0.0,93,0.00,,,0.00,weatherlink.com 1.10,2013-05-02 06:39:00,
2013-05-02 02:54:00,43.2,41.0,30.42,SE,145,0.0,0.0,92,0.00,,,0.00,weatherlink.com 1.10,2013-05-02 06:54:00,
2013-05-02 03:09:00,43.0,41.0,30.42,SE,145,0.0,0.0,93,0.00,,,0.00,weatherlink.com 1.10,2013-05-02 07:09:00,
2013-05-02 03:24:00,42.8,41.0,30.43,SE,146,0.0,0.0,93,0.00,,,0.00,weatherlink.com 1.10,2013-05-02 07:24:00,
2013-05-02 03:39:00,42.8,41.0,30.43,SE,145,0.0,0.0,93,0.00,,,0.00,weatherlink.com 1.10,2013-05-02 07:39:00,
2013-05-02 03:54:00,42.3,41.0,30.42,SE,146,0.0,0.0,93,0.00,,,0.00,weatherlink.com 1.10,2013-05-02 07:54:00,
2013-05-02 04:09:00,42.0,40.0,30.42,SE,145,0.0,0.0,93,0.00,,,0.00,weatherlink.com 1.10,2013-05-02 08:09:00,
2013-05-02 04:24:00,41.7,40.0,30.42,SE,145,0.0,0.0,94,0.00,,,0.00,weatherlink.com 1.10,2013-05-02 08:24:00,
2013-05-02 04:39:00,41.8,40.0,30.42,SE,145,0.0,0.0,94,0.00,,,0.00,weatherlink.com 1.10,2013-05-02 08:39:00,
2013-05-02 04:54:00,41.7,40.0,30.42,SE,145,0.0,0.0,94,0.00,,,0.00,weatherlink.com 1.10,2013-05-02 08:54:00,
2013-05-02 05:09:00,41.5,40.0,30.42,SE,145,0.0,0.0,94,0.00,,,0.00,weatherlink.com 1.10,2013-05-02 09:09:00,
2013-05-02 05:24:00,41.2,40.0,30.42,SE,145,0.0,0.0,94,0.00,,,0.00,weatherlink.com 1.10,2013-05-02 09:24:00,
2013-05-02 05:40:00,40.9,40.0,30.42,SE,146,0.0,0.0,95,0.00,,,0.00,weatherlink.com 1.10,2013-05-02 09:40:00,
2013-05-02 05:55:00,41.2,40.0,30.43,SE,145,0.0,0.0,95,0.00,,,0.00,weatherlink.com 1.10,2013-05-02 09:55:00,
2013-05-02 06:10:00,41.1,40.0,30.43,SE,145,0.0,0.0,95,0.00,,,0.00,weatherlink.com 1.10,2013-05-02 10:10:00,
2013-05-02 06:25:00,40.9,40.0,30.43,SE,145,0.0,0.0,95,0.00,,,0.00,weatherlink.com 1.10,2013-05-02 10:25:00,
2013-05-02 06:40:00,41.1,40.0,30.43,SE,145,0.0,0.0,95,0.00,,,0.00,weatherlink.com 1.10,2013-05-02 10:40:00,
2013-05-02 06:55:00,41.3,40.0,30.44,SE,145,0.0,0.0,96,0.00,,,0.00,weatherlink.com 1.10,2013-05-02 10:55:00,
2013-05-02 07:10:00,42.4,41.0,30.44,SE,145,0.0,0.0,96,0.00,,,0.00,weatherlink.com 1.10,2013-05-02 11:10:00,
2013-05-02 07:25:00,43.9,43.0,30.45,SE,146,0.0,0.0,96,0.00,,,0.00,weatherlink.com 1.10,2013-05-02 11:25:00,
2013-05-02 07:40:00,45.5,44.0,30.45,SE,146,0.0,0.0,94,0.00,,,0.00,weatherlink.com 1.10,2013-05-02 11:40:00,
2013-05-02 07:55:00,48.1,45.0,30.45,SE,146,0.0,0.0,90,0.00,,,0.00,weatherlink.com 1.10,2013-05-02 11:55:00,
2013-05-02 08:10:00,50.9,46.0,30.46,SE,132,0.0,0.0,84,0.00,,,0.00,weatherlink.com 1.10,2013-05-02 12:10:00,
2013-05-02 08:25:00,53.7,46.0,30.46,East,82,0.0,1.0,75,0.00,,,0.00,weatherlink.com 1.10,2013-05-02 12:25:00,
2013-05-02 08:40:00,56.1,47.0,30.46,East,101,0.0,1.0,71,0.00,,,0.00,weatherlink.com 1.10,2013-05-02 12:40:00,
2013-05-02 08:55:00,57.3,46.0,30.46,WNW,291,0.0,2.0,67,0.00,,,0.00,weatherlink.com 1.10,2013-05-02 12:55:00,
2013-05-02 09:10:00,58.7,46.0,30.46,ENE,70,1.0,2.0,62,0.00,,,0.00,weatherlink.com 1.10,2013-05-02 13:10:00,
2013-05-02 09:25:00,59.3,46.0,30.45,SSE,159,1.0,3.0,61,0.00,,,0.00,weatherlink.com 1.10,2013-05-02 13:25:00,
2013-05-02 09:40:00,60.5,44.0,30.45,ENE,73,2.0,2.0,55,0.00,,,0.00,weatherlink.com 1.10,2013-05-02 13:40:00,
2013-05-02 09:55:00,61.1,45.0,30.45,NNE,20,0.0,3.0,56,0.00,,,0.00,weatherlink.com 1.10,2013-05-02 13:55:00,
2013-05-02 10:10:00,61.9,45.0,30.45,ENE,68,2.0,3.0,54,0.00,,,0.00,weatherlink.com 1.10,2013-05-02 14:10:00,
2013-05-02 10:25:00,63.0,44.0,30.46,WNW,292,2.0,3.0,51,0.00,,,0.00,weatherlink.com 1.10,2013-05-02 14:25:00,
2013-05-02 10:40:00,63.8,44.0,30.46,ENE,75,2.0,4.0,49,0.00,,,0.00,weatherlink.com 1.10,2013-05-02 14:40:00,
2013-05-02 10:55:00,64.3,44.0,30.46,NW,321,1.0,3.0,48,0.00,,,0.00,weatherlink.com 1.10,2013-05-02 14:55:00,
2013-05-02 11:10:00,65.0,44.0,30.45,SE,135,0.0,3.0,47,0.00,,,0.00,weatherlink.com 1.10,2013-05-02 15:10:00,
2013-05-02 11:25:00,65.0,45.0,30.45,North,358,3.0,3.0,48,0.00,,,0.00,weatherlink.com 1.10,2013-05-02 15:25:00,
2013-05-02 11:40:00,66.2,45.0,30.44,SE,138,1.0,3.0,46,0.00,,,0.00,weatherlink.com 1.10,2013-05-02 15:40:00,
2013-05-02 11:55:00,67.1,45.0,30.44,North,1,1.0,4.0,45,0.00,,,0.00,weatherlink.com 1.10,2013-05-02 15:55:00,
2013-05-02 12:10:00,67.3,45.0,30.44,NNW,347,2.0,3.0,45,0.00,,,0.00,weatherlink.com 1.10,2013-05-02 16:10:00,
2013-05-02 12:26:00,67.4,45.0,30.43,SSW,205,0.0,4.0,44,0.00,,,0.00,weatherlink.com 1.10,2013-05-02 16:26:00,
2013-05-02 12:41:00,67.5,45.0,30.42,SW,224,3.0,4.0,45,0.00,,,0.00,weatherlink.com 1.10,2013-05-02 16:41:00,
2013-05-02 12:56:00,67.7,42.0,30.42,NE,37,1.0,3.0,40,0.00,,,0.00,weatherlink.com 1.10,2013-05-02 16:56:00,
2013-05-02 13:11:00,68.1,43.0,30.42,SW,225,2.0,3.0,41,0.00,,,0.00,weatherlink.com 1.10,2013-05-02 17:11:00,
2013-05-02 13:26:00,68.7,46.0,30.41,South,169,1.0,3.0,44,0.00,,,0.00,weatherlink.com 1.10,2013-05-02 17:26:00,
2013-05-02 13:41:00,68.9,45.0,30.41,SSW,194,4.0,4.0,43,0.00,,,0.00,weatherlink.com 1.10,2013-05-02 17:41:00,
2013-05-02 13:56:00,69.5,47.0,30.40,SSW,194,4.0,5.0,44,0.00,,,0.00,weatherlink.com 1.10,2013-05-02 17:56:00,
2013-05-02 14:11:00,70.6,46.0,30.40,West,278,0.0,3.0,42,0.00,,,0.00,weatherlink.com 1.10,2013-05-02 18:11:00,
2013-05-02 14:26:00,70.1,46.0,30.40,WSW,252,1.0,5.0,42,0.00,,,0.00,weatherlink.com 1.10,2013-05-02 18:26:00,
2013-05-02 14:41:00,70.6,45.0,30.39,ESE,122,1.0,4.0,40,0.00,,,0.00,weatherlink.com 1.10,2013-05-02 18:41:00,
2013-05-02 14:56:00,71.7,46.0,30.39,SSW,210,5.0,5.0,40,0.00,,,0.00,weatherlink.com 1.10,2013-05-02 18:56:00,
2013-05-02 15:11:00,71.2,45.0,30.39,ESE,108,0.0,6.0,39,0.00,,,0.00,weatherlink.com 1.10,2013-05-02 19:11:00,
2013-05-02 15:26:00,72.9,44.0,30.38,SE,146,0.0,3.0,36,0.00,,,0.00,weatherlink.com 1.10,2013-05-02 19:26:00,
2013-05-02 15:41:00,73.2,44.0,30.38,SSW,205,1.0,4.0,35,0.00,,,0.00,weatherlink.com 1.10,2013-05-02 19:41:00,
2013-05-02 15:56:00,73.6,46.0,30.37,SE,124,1.0,3.0,37,0.00,,,0.00,weatherlink.com 1.10,2013-05-02 19:56:00,
2013-05-02 16:11:00,72.6,44.0,30.37,West,278,0.0,3.0,36,0.00,,,0.00,weatherlink.com 1.10,2013-05-02 20:11:00,
2013-05-02 16:26:00,72.7,45.0,30.36,South,172,0.0,4.0,37,0.00,,,0.00,weatherlink.com 1.10,2013-05-02 20:26:00,
2013-05-02 16:41:00,72.6,44.0,30.36,WSW,240,0.0,3.0,36,0.00,,,0.00,weatherlink.com 1.10,2013-05-02 20:41:00,
2013-05-02 16:56:00,71.9,44.0,30.35,WSW,256,2.0,3.0,37,0.00,,,0.00,weatherlink.com 1.10,2013-05-02 20:56:00,
2013-05-02 17:11:00,71.1,44.0,30.35,SSW,200,0.0,5.0,38,0.00,,,0.00,weatherlink.com 1.10,2013-05-02 21:11:00,
2013-05-02 17:26:00,70.7,44.0,30.35,WSW,239,2.0,6.0,39,0.00,,,0.00,weatherlink.com 1.10,2013-05-02 21:26:00,
2013-05-02 17:41:00,69.8,44.0,30.35,SSW,213,3.0,5.0,39,0.00,,,0.00,weatherlink.com 1.10,2013-05-02 21:41:00,
2013-05-02 17:56:00,69.3,44.0,30.35,South,187,1.0,3.0,40,0.00,,,0.00,weatherlink.com 1.10,2013-05-02 21:56:00,
2013-05-02 18:11:00,68.7,44.0,30.34,SW,218,1.0,3.0,41,0.00,,,0.00,weatherlink.com 1.10,2013-05-02 22:11:00,
2013-05-02 18:26:00,67.9,44.0,30.34,SW,224,0.0,1.0,42,0.00,,,0.00,weatherlink.com 1.10,2013-05-02 22:26:00,
2013-05-02 18:41:00,67.1,42.0,30.33,SSW,208,3.0,3.0,41,0.00,,,0.00,weatherlink.com 1.10,2013-05-02 22:41:00,
2013-05-02 18:56:00,66.2,42.0,30.33,SW,226,0.0,2.0,42,0.00,,,0.00,weatherlink.com 1.10,2013-05-02 22:56:00,
2013-05-02 19:11:00,65.9,43.0,30.33,SSW,204,0.0,1.0,43,0.00,,,0.00,weatherlink.com 1.10,2013-05-02 23:11:00,
2013-05-02 19:26:00,65.3,43.0,30.33,SSE,156,0.0,1.0,44,0.00,,,0.00,weatherlink.com 1.10,2013-05-02 23:26:00,
2013-05-02 19:41:00,64.6,44.0,30.33,SSW,203,0.0,1.0,47,0.00,,,0.00,weatherlink.com 1.10,2013-05-02 23:41:00,
2013-05-02 19:56:00,63.6,44.0,30.33,SSW,203,0.0,0.0,50,0.00,,,0.00,weatherlink.com 1.10,2013-05-02 23:56:00,
2013-05-02 20:11:00,62.7,45.0,30.32,SSW,203,0.0,0.0,53,0.00,,,0.00,weatherlink.com 1.10,2013-05-03 00:11:00,
2013-05-02 20:26:00,61.8,45.0,30.33,SSW,203,0.0,0.0,55,0.00,,,0.00,weatherlink.com 1.10,2013-05-03 00:26:00,
2013-05-02 20:41:00,60.9,45.0,30.33,SSW,204,0.0,0.0,57,0.00,,,0.00,weatherlink.com 1.10,2013-05-03 00:41:00,
2013-05-02 20:56:00,60.1,45.0,30.33,SSW,204,0.0,0.0,58,0.00,,,0.00,weatherlink.com 1.10,2013-05-03 00:56:00,
2013-05-02 21:11:00,59.3,46.0,30.34,SSW,204,0.0,0.0,61,0.00,,,0.00,weatherlink.com 1.10,2013-05-03 01:11:00,
2013-05-02 21:26:00,58.4,46.0,30.34,SSW,204,0.0,0.0,63,0.00,,,0.00,weatherlink.com 1.10,2013-05-03 01:26:00,
2013-05-02 21:41:00,57.4,45.0,30.33,SSW,204,0.0,0.0,64,0.00,,,0.00,weatherlink.com 1.10,2013-05-03 01:41:00,
2013-05-02 21:56:00,56.8,45.0,30.34,SSW,204,0.0,0.0,66,0.00,,,0.00,weatherlink.com 1.10,2013-05-03 01:56:00,
2013-05-02 22:11:00,56.3,46.0,30.34,SSW,204,0.0,0.0,68,0.00,,,0.00,weatherlink.com 1.10,2013-05-03 02:11:00,
2013-05-02 22:26:00,55.6,46.0,30.34,SSW,204,0.0,0.0,70,0.00,,,0.00,weatherlink.com 1.10,2013-05-03 02:26:00,
2013-05-02 22:41:00,55.0,46.0,30.34,SSW,204,0.0,0.0,71,0.00,,,0.00,weatherlink.com 1.10,2013-05-03 02:41:00,
2013-05-02 22:56:00,54.4,46.0,30.34,SSW,204,0.0,0.0,72,0.00,,,0.00,weatherlink.com 1.10,2013-05-03 02:56:00,
2013-05-02 23:11:00,54.0,46.0,30.35,SSW,204,0.0,0.0,74,0.00,,,0.00,weatherlink.com 1.10,2013-05-03 03:11:00,
2013-05-02 23:26:00,53.5,45.0,30.35,SSW,204,0.0,0.0,74,0.00,,,0.00,weatherlink.com 1.10,2013-05-03 03:26:00,
2013-05-02 23:41:00,53.1,46.0,30.36,SSW,204,0.0,0.0,76,0.00,,,0.00,weatherlink.com 1.10,2013-05-03 03:41:00,
2013-05-02 23:56:00,52.7,46.0,30.37,SSW,204,0.0,0.0,77,0.00,,,0.00,weatherlink.com 1.10,2013-05-03 03:56:00,